Terminal Aerodrome Forecast
Issued by NWS Grand Forks, ND

Home | Current Version | Previous Version | Text Only | Print | Product List | Glossary On
Versions: 1 2 3 4 5 6 7 8 9 10 11 12 13 14 15 16 17 18 19 20
000
FTUS43 KFGF 101129
TAFFAR
TAF
KFAR 101129Z 1012/1112 VRB04KT P6SM BKN020
     FM101500 VRB04KT P6SM SCT020
     FM102100 10006KT P6SM BKN025
     FM110500 09008KT 3SM -SN OVC015
     FM110800 08007KT 1SM -SN OVC012=

USA.gov is the U.S. government's official web portal to all federal, state and local government web resources and services.